createdAt,value
2022-07-31T00:00:31.833Z,21.10
2022-07-31T00:03:05.021Z,21.00
2022-07-31T00:05:41.587Z,20.90
2022-07-31T00:08:15.024Z,20.90
2022-07-31T00:10:48.160Z,20.80
2022-07-31T00:13:57.690Z,20.80
2022-07-31T00:16:14.356Z,20.80
2022-07-31T00:18:50.363Z,20.80
2022-07-31T00:21:23.403Z,20.80
2022-07-31T00:23:56.338Z,20.80
2022-07-31T00:26:29.539Z,20.80
2022-07-31T00:29:02.436Z,20.70
2022-07-31T00:31:35.502Z,20.70
2022-07-31T00:34:11.980Z,20.70
2022-07-31T00:36:45.146Z,20.70
2022-07-31T00:39:18.138Z,20.70
2022-07-31T00:41:51.326Z,20.70
2022-07-31T00:44:24.232Z,20.70
2022-07-31T00:46:59.353Z,20.60
2022-07-31T00:49:37.541Z,20.60
2022-07-31T00:52:11.552Z,20.60
2022-07-31T00:54:44.497Z,20.60
2022-07-31T00:59:50.650Z,20.50
2022-07-31T01:02:24.026Z,20.50
2022-07-31T01:04:56.924Z,20.50
2022-07-31T01:07:30.001Z,20.40
2022-07-31T01:10:08.093Z,20.40
2022-07-31T01:12:54.227Z,20.40
2022-07-31T01:15:28.285Z,20.30
2022-07-31T01:18:01.664Z,20.30
2022-07-31T01:20:35.105Z,20.20
2022-07-31T01:27:01.551Z,20.20
2022-07-31T01:29:44.201Z,20.10
2022-07-31T01:32:48.404Z,20.00
2022-07-31T01:35:32.694Z,20.00
2022-07-31T01:38:10.532Z,20.00
2022-07-31T01:40:48.263Z,19.90
2022-07-31T01:46:02.576Z,19.80
2022-07-31T01:48:36.483Z,19.70
2022-07-31T01:51:11.406Z,19.70
2022-07-31T01:53:46.666Z,19.60
2022-07-31T01:56:21.370Z,19.60
2022-07-31T01:58:55.785Z,19.50
2022-07-31T02:01:43.855Z,19.50
2022-07-31T02:04:20.613Z,19.40
2022-07-31T02:06:54.925Z,19.40
2022-07-31T02:09:29.190Z,19.30
2022-07-31T02:12:04.761Z,19.30
2022-07-31T02:14:43.708Z,19.30
2022-07-31T02:17:22.285Z,19.30
2022-07-31T02:20:15.916Z,19.30
2022-07-31T02:22:48.983Z,19.20
2022-07-31T02:25:22.151Z,19.20
2022-07-31T02:27:59.155Z,19.10
2022-07-31T02:30:39.145Z,19.10
2022-07-31T02:33:22.643Z,19.10
2022-07-31T02:35:56.757Z,19.10
2022-07-31T02:38:30.750Z,19.10
2022-07-31T02:41:05.397Z,19.10
2022-07-31T02:43:39.318Z,19.10
2022-07-31T02:46:23.071Z,19.00
2022-07-31T02:48:57.803Z,19.00
2022-07-31T02:51:42.514Z,19.00
2022-07-31T02:54:18.283Z,19.00
2022-07-31T02:56:52.499Z,19.00
2022-07-31T02:59:25.784Z,19.00
2022-07-31T03:02:06.222Z,19.00
2022-07-31T03:04:45.795Z,19.00
2022-07-31T03:07:18.799Z,19.00
2022-07-31T03:09:52.513Z,19.00
2022-07-31T03:12:50.421Z,19.00
2022-07-31T03:15:26.611Z,19.00
2022-07-31T03:18:00.756Z,19.00
2022-07-31T03:20:41.541Z,18.90
2022-07-31T03:23:15.823Z,18.90
2022-07-31T03:25:58.441Z,18.90
2022-07-31T03:28:33.221Z,18.80
2022-07-31T03:31:07.975Z,18.80
2022-07-31T03:33:42.804Z,18.70
2022-07-31T03:36:16.231Z,18.70
2022-07-31T03:38:50.781Z,18.70
2022-07-31T03:41:51.110Z,18.80
2022-07-31T03:44:26.015Z,18.80
2022-07-31T03:46:59.979Z,18.80
2022-07-31T03:49:33.720Z,18.80
2022-07-31T03:52:11.718Z,18.80
2022-07-31T03:54:45.568Z,18.80
2022-07-31T03:57:31.096Z,18.80
2022-07-31T04:00:07.395Z,18.90
2022-07-31T04:02:50.550Z,18.90
2022-07-31T04:05:58.923Z,18.90
2022-07-31T04:08:31.947Z,18.90
2022-07-31T04:11:05.139Z,18.90
2022-07-31T04:13:38.203Z,18.90
2022-07-31T04:16:11.262Z,18.90
2022-07-31T04:18:48.514Z,18.90
2022-07-31T04:21:24.047Z,18.90
2022-07-31T04:23:57.239Z,19.00
2022-07-31T04:26:58.062Z,19.00
2022-07-31T04:29:38.105Z,19.10
2022-07-31T04:32:11.554Z,19.10
2022-07-31T04:34:54.037Z,19.10
2022-07-31T04:37:27.095Z,19.10
2022-07-31T04:40:00.047Z,19.20
2022-07-31T04:42:33.193Z,19.20
2022-07-31T04:45:07.525Z,19.20
2022-07-31T04:47:40.586Z,19.20
2022-07-31T04:50:13.715Z,19.10
2022-07-31T04:53:01.264Z,19.10
2022-07-31T04:55:39.564Z,19.10
2022-07-31T04:58:12.451Z,19.20
2022-07-31T05:00:45.440Z,19.20
2022-07-31T05:03:18.375Z,19.30
2022-07-31T05:05:51.248Z,19.20
2022-07-31T05:08:24.321Z,19.20
2022-07-31T05:11:15.891Z,19.30
2022-07-31T05:13:54.854Z,19.30
2022-07-31T05:16:29.420Z,19.40
2022-07-31T05:19:04.518Z,19.40
2022-07-31T05:22:01.741Z,19.40
2022-07-31T05:25:01.631Z,19.40
2022-07-31T05:27:39.164Z,19.40
2022-07-31T05:30:14.573Z,19.40
2022-07-31T05:32:47.739Z,19.50
2022-07-31T05:35:22.066Z,19.50
2022-07-31T05:37:55.494Z,19.60
2022-07-31T05:40:42.621Z,19.60
2022-07-31T05:43:34.476Z,19.70
2022-07-31T05:46:17.253Z,19.80
2022-07-31T05:48:51.582Z,19.90
2022-07-31T05:51:25.916Z,20.00
2022-07-31T05:53:58.937Z,20.20
2022-07-31T05:56:50.211Z,20.30
2022-07-31T05:59:27.000Z,20.60
2022-07-31T06:02:00.199Z,20.70
2022-07-31T06:04:34.209Z,20.80
2022-07-31T06:07:07.185Z,21.00
2022-07-31T06:09:40.209Z,21.10
2022-07-31T06:12:13.100Z,21.20
2022-07-31T06:14:46.338Z,21.20
2022-07-31T06:17:40.417Z,21.20
2022-07-31T06:20:29.533Z,21.30
2022-07-31T06:23:02.521Z,21.30
2022-07-31T06:25:53.925Z,21.60
2022-07-31T06:28:38.876Z,21.70
2022-07-31T06:31:21.819Z,21.80
2022-07-31T06:33:57.391Z,21.90
2022-07-31T06:36:35.088Z,22.00
2022-07-31T06:39:09.576Z,22.10
2022-07-31T06:41:49.499Z,22.10
2022-07-31T06:44:35.077Z,22.10
2022-07-31T06:47:24.151Z,22.10
2022-07-31T06:50:12.049Z,22.20
2022-07-31T06:52:51.399Z,22.20
2022-07-31T06:55:24.369Z,22.40
2022-07-31T06:57:57.547Z,22.40
2022-07-31T07:00:30.590Z,22.50
2022-07-31T07:03:03.531Z,22.70
2022-07-31T07:05:37.472Z,22.90
2022-07-31T07:08:10.488Z,23.10
2022-07-31T07:10:43.687Z,23.30
2022-07-31T07:13:45.817Z,23.30
2022-07-31T07:16:19.968Z,23.40
2022-07-31T07:18:53.351Z,23.40
2022-07-31T07:21:29.448Z,23.50
2022-07-31T07:24:02.358Z,23.60
2022-07-31T07:27:03.679Z,23.70
2022-07-31T07:29:36.686Z,23.90
2022-07-31T07:32:12.934Z,24.20
2022-07-31T07:34:45.904Z,24.50
2022-07-31T07:37:38.954Z,24.80
2022-07-31T07:40:12.485Z,25.00
2022-07-31T07:42:45.733Z,25.00
2022-07-31T07:45:19.877Z,24.90
2022-07-31T07:48:06.603Z,25.10
2022-07-31T07:50:53.983Z,25.20
2022-07-31T07:53:50.031Z,25.30
2022-07-31T07:56:37.975Z,25.60
2022-07-31T07:59:26.248Z,25.90
2022-07-31T08:02:19.397Z,26.10
2022-07-31T08:04:53.548Z,26.20
2022-07-31T08:07:42.380Z,26.40
2022-07-31T08:10:36.285Z,26.50
2022-07-31T08:13:49.784Z,26.80
2022-07-31T08:16:48.691Z,27.00
2022-07-31T08:19:21.762Z,27.20
2022-07-31T08:21:54.899Z,27.30
2022-07-31T08:24:27.894Z,27.30
2022-07-31T08:27:21.585Z,27.30
2022-07-31T08:29:57.385Z,27.30
2022-07-31T08:32:30.324Z,27.30
2022-07-31T08:35:21.768Z,27.40
2022-07-31T08:38:03.102Z,27.40
2022-07-31T08:40:44.306Z,27.50
2022-07-31T08:44:00.168Z,27.60
2022-07-31T08:46:13.024Z,27.70
2022-07-31T08:48:47.139Z,27.70
2022-07-31T08:51:22.683Z,27.80
2022-07-31T08:54:22.913Z,28.10
2022-07-31T08:56:56.154Z,28.10
2022-07-31T08:59:29.665Z,28.20
2022-07-31T09:02:02.886Z,28.30
2022-07-31T09:04:40.153Z,28.40
2022-07-31T09:07:15.972Z,28.40
2022-07-31T09:09:51.502Z,28.40
2022-07-31T09:12:34.244Z,28.60
2022-07-31T09:20:30.469Z,29.00
2022-07-31T09:23:05.728Z,29.10
2022-07-31T09:25:58.004Z,29.10
2022-07-31T09:28:34.916Z,29.20
2022-07-31T09:31:09.979Z,29.10
2022-07-31T09:34:03.739Z,29.10
2022-07-31T09:36:36.782Z,29.10
2022-07-31T09:39:27.587Z,29.20
2022-07-31T09:42:16.840Z,29.10
2022-07-31T09:45:24.212Z,29.10
2022-07-31T09:48:13.771Z,29.10
2022-07-31T09:50:59.645Z,29.20
2022-07-31T09:53:47.535Z,29.20
2022-07-31T09:56:39.154Z,29.20
2022-07-31T09:59:12.527Z,29.20
2022-07-31T10:01:51.441Z,29.30
2022-07-31T10:04:25.253Z,29.30
2022-07-31T10:06:59.189Z,29.50
2022-07-31T10:09:33.167Z,29.50
2022-07-31T10:12:40.917Z,29.60
2022-07-31T10:15:16.514Z,29.80
2022-07-31T10:17:54.450Z,29.90
2022-07-31T10:20:59.193Z,30.00
2022-07-31T10:23:54.073Z,30.10
2022-07-31T10:26:50.654Z,30.20
2022-07-31T10:29:21.493Z,30.20
2022-07-31T10:31:55.414Z,30.40
2022-07-31T10:34:29.083Z,30.40
2022-07-31T10:37:47.154Z,30.30
2022-07-31T10:40:54.241Z,30.20
2022-07-31T10:43:29.252Z,30.20
2022-07-31T10:46:35.338Z,30.20
2022-07-31T10:49:43.607Z,30.20
2022-07-31T10:52:45.681Z,30.30
2022-07-31T10:55:25.346Z,30.50
2022-07-31T10:58:33.673Z,30.60
2022-07-31T11:01:31.263Z,30.80
2022-07-31T11:04:30.559Z,30.90
2022-07-31T11:07:21.091Z,31.00
2022-07-31T11:10:20.368Z,31.10
2022-07-31T11:13:11.894Z,31.10
2022-07-31T11:16:10.967Z,31.10
2022-07-31T11:19:04.695Z,31.20
2022-07-31T11:21:40.563Z,31.20
2022-07-31T11:24:23.956Z,31.20
2022-07-31T11:26:58.364Z,31.20
2022-07-31T11:30:00.626Z,31.20
2022-07-31T11:32:26.899Z,31.30
2022-07-31T11:34:59.971Z,31.50
2022-07-31T11:37:46.439Z,31.50
2022-07-31T11:40:27.712Z,31.60
2022-07-31T11:45:55.433Z,31.80
2022-07-31T11:48:38.263Z,32.00
2022-07-31T11:51:18.671Z,32.10
2022-07-31T11:53:57.322Z,32.20
2022-07-31T11:56:30.953Z,32.30
2022-07-31T11:59:04.493Z,32.20
2022-07-31T12:01:40.757Z,32.40
2022-07-31T12:04:19.398Z,32.40
2022-07-31T12:06:58.612Z,32.60
2022-07-31T12:10:00.977Z,32.70
2022-07-31T12:12:27.397Z,32.60
2022-07-31T12:15:00.546Z,32.70
2022-07-31T12:17:33.442Z,32.70
2022-07-31T12:20:34.501Z,32.80
2022-07-31T12:23:40.819Z,33.00
2022-07-31T12:26:03.232Z,33.00
2022-07-31T12:28:36.281Z,32.80
2022-07-31T12:31:09.467Z,32.70
2022-07-31T12:33:45.814Z,32.40
2022-07-31T12:36:19.441Z,32.20
2022-07-31T12:39:12.187Z,32.00
2022-07-31T12:41:47.775Z,31.70
2022-07-31T12:44:22.122Z,31.50
2022-07-31T12:46:55.432Z,31.40
2022-07-31T12:49:28.550Z,31.20
2022-07-31T12:52:01.677Z,31.00
2022-07-31T12:54:39.190Z,30.90
2022-07-31T12:57:13.390Z,30.90
2022-07-31T12:59:48.655Z,30.80
2022-07-31T13:02:23.181Z,30.70
2022-07-31T13:05:04.708Z,30.60
2022-07-31T13:07:37.716Z,30.60
2022-07-31T13:10:19.045Z,30.50
2022-07-31T13:12:58.032Z,30.40
2022-07-31T13:15:31.556Z,30.30
2022-07-31T13:18:05.177Z,30.20
2022-07-31T13:20:41.600Z,30.00
2022-07-31T13:23:18.631Z,29.90
2022-07-31T13:25:54.161Z,29.70
2022-07-31T13:28:27.336Z,29.60
2022-07-31T13:31:00.216Z,29.50
2022-07-31T13:33:33.365Z,29.40
2022-07-31T13:36:06.512Z,29.40
2022-07-31T13:38:39.647Z,29.40
2022-07-31T13:41:23.929Z,29.40
2022-07-31T13:43:59.652Z,29.40
2022-07-31T13:46:35.666Z,29.40
2022-07-31T13:49:09.306Z,29.40
2022-07-31T13:51:42.621Z,29.40
2022-07-31T13:54:16.428Z,29.40
2022-07-31T13:56:49.520Z,29.40
2022-07-31T13:59:22.806Z,29.40
2022-07-31T14:02:03.406Z,29.40
2022-07-31T14:04:46.213Z,29.30
2022-07-31T14:07:19.285Z,29.30
2022-07-31T14:09:57.838Z,29.30
2022-07-31T14:12:36.601Z,29.20
2022-07-31T14:15:15.300Z,29.20
2022-07-31T14:17:50.994Z,29.20
2022-07-31T14:20:24.364Z,29.30
2022-07-31T14:22:57.642Z,29.20
2022-07-31T14:25:40.218Z,29.10
2022-07-31T14:28:22.094Z,29.00
2022-07-31T14:30:58.800Z,29.00
2022-07-31T14:33:31.980Z,29.00
2022-07-31T14:36:06.477Z,29.00
2022-07-31T14:38:39.837Z,28.90
2022-07-31T14:41:13.348Z,28.90
2022-07-31T14:43:46.520Z,28.90
2022-07-31T14:46:19.614Z,28.80
2022-07-31T14:48:52.809Z,28.80
2022-07-31T14:51:25.820Z,28.70
2022-07-31T14:53:59.640Z,28.70
2022-07-31T14:56:58.890Z,28.70
2022-07-31T14:59:25.368Z,28.60
2022-07-31T15:01:58.826Z,28.60
2022-07-31T15:04:32.326Z,28.60
2022-07-31T15:07:32.318Z,28.50
2022-07-31T15:09:58.370Z,28.40
2022-07-31T15:12:31.920Z,28.30
2022-07-31T15:15:06.393Z,28.20
2022-07-31T15:17:39.451Z,28.10
2022-07-31T15:20:13.157Z,28.00
2022-07-31T15:22:46.218Z,27.90
2022-07-31T15:25:19.421Z,27.90
2022-07-31T15:27:52.435Z,27.90
2022-07-31T15:30:25.647Z,27.90
2022-07-31T15:32:58.826Z,27.80
2022-07-31T15:35:32.130Z,27.80
2022-07-31T15:38:05.341Z,27.80
2022-07-31T15:40:38.640Z,27.80
2022-07-31T15:43:11.653Z,27.90
2022-07-31T15:45:44.862Z,27.90
2022-07-31T15:48:19.705Z,27.90
2022-07-31T15:50:52.852Z,27.90
2022-07-31T15:53:29.832Z,27.90
2022-07-31T15:56:12.410Z,27.90
2022-07-31T15:58:45.365Z,27.70
2022-07-31T16:01:18.825Z,27.70
2022-07-31T16:03:53.413Z,27.60
2022-07-31T16:06:27.992Z,27.60
2022-07-31T16:09:05.203Z,27.50
2022-07-31T16:12:04.105Z,27.50
2022-07-31T16:14:31.454Z,27.40
2022-07-31T16:17:04.806Z,27.30
2022-07-31T16:19:38.063Z,27.30
2022-07-31T16:22:11.621Z,27.20
2022-07-31T16:24:44.715Z,27.20
2022-07-31T16:27:17.890Z,27.20
2022-07-31T16:30:00.951Z,27.20
2022-07-31T16:32:34.996Z,27.20
2022-07-31T16:35:09.092Z,27.20
2022-07-31T16:37:50.183Z,27.20
2022-07-31T16:40:30.028Z,27.20
2022-07-31T16:43:47.653Z,27.10
2022-07-31T16:46:00.070Z,27.10
2022-07-31T16:48:32.979Z,27.00
2022-07-31T16:51:06.588Z,27.10
2022-07-31T16:54:14.684Z,27.00
2022-07-31T16:56:32.931Z,27.00
2022-07-31T16:59:07.016Z,27.00
2022-07-31T17:01:53.881Z,26.90
2022-07-31T17:04:33.929Z,26.90
2022-07-31T17:07:07.609Z,26.80
2022-07-31T17:09:41.176Z,26.90
2022-07-31T17:12:14.345Z,26.80
2022-07-31T17:14:48.600Z,26.80
2022-07-31T17:17:21.777Z,26.80
2022-07-31T17:19:55.305Z,26.80
2022-07-31T17:22:28.500Z,26.70
2022-07-31T17:25:05.948Z,26.70
2022-07-31T17:27:38.893Z,26.70
2022-07-31T17:30:12.624Z,26.70
2022-07-31T17:32:45.543Z,26.60
2022-07-31T17:35:19.460Z,26.60
2022-07-31T17:37:52.531Z,26.50
2022-07-31T17:40:42.358Z,26.50
2022-07-31T17:43:19.005Z,26.50
2022-07-31T17:46:09.346Z,26.50
2022-07-31T17:48:51.115Z,26.40
2022-07-31T17:51:24.299Z,26.40
2022-07-31T17:53:59.561Z,26.40
2022-07-31T17:56:33.307Z,26.30
2022-07-31T17:59:06.360Z,26.30
2022-07-31T18:01:39.520Z,26.20
2022-07-31T18:04:17.363Z,26.10
2022-07-31T18:06:54.952Z,26.10
2022-07-31T18:09:29.042Z,26.00
2022-07-31T18:12:12.184Z,26.00
2022-07-31T18:14:52.453Z,26.00
2022-07-31T18:17:32.667Z,26.00
2022-07-31T18:20:07.099Z,25.90
2022-07-31T18:22:49.720Z,25.80
2022-07-31T18:25:23.400Z,25.80
2022-07-31T18:27:57.327Z,25.80
2022-07-31T18:30:33.729Z,25.70
2022-07-31T18:33:11.220Z,25.70
2022-07-31T18:35:48.508Z,25.60
2022-07-31T18:38:21.739Z,25.50
2022-07-31T18:40:56.777Z,25.50
2022-07-31T18:43:30.448Z,25.40
2022-07-31T18:46:03.611Z,25.30
2022-07-31T18:48:36.852Z,25.30
2022-07-31T18:51:10.337Z,25.20
2022-07-31T18:53:43.526Z,25.10
2022-07-31T18:56:16.971Z,25.10
2022-07-31T18:58:50.745Z,25.00
2022-07-31T19:01:24.068Z,25.00
2022-07-31T19:03:57.362Z,24.90
2022-07-31T19:06:30.468Z,24.80
2022-07-31T19:09:04.318Z,24.80
2022-07-31T19:11:37.341Z,24.70
2022-07-31T19:14:10.627Z,24.60
2022-07-31T19:16:44.397Z,24.60
2022-07-31T19:19:17.569Z,24.60
2022-07-31T19:21:50.751Z,24.50
2022-07-31T19:24:24.297Z,24.40
2022-07-31T19:26:57.449Z,24.40
2022-07-31T19:29:31.057Z,24.30
2022-07-31T19:32:04.394Z,24.20
2022-07-31T19:34:37.797Z,24.20
2022-07-31T19:37:13.858Z,24.20
2022-07-31T19:39:47.291Z,24.10
2022-07-31T19:42:20.543Z,24.10
2022-07-31T19:44:53.767Z,24.00
2022-07-31T19:47:27.046Z,24.00
2022-07-31T19:50:02.381Z,24.00
2022-07-31T19:52:35.541Z,23.90
2022-07-31T19:55:10.862Z,23.80
2022-07-31T19:57:44.831Z,23.80
2022-07-31T20:00:19.104Z,23.80
2022-07-31T20:02:52.500Z,23.80
2022-07-31T20:05:25.614Z,23.80
2022-07-31T20:07:58.776Z,23.70
2022-07-31T20:10:31.803Z,23.70
2022-07-31T20:13:05.036Z,23.70
2022-07-31T20:15:50.676Z,23.70
2022-07-31T20:18:29.219Z,23.70
2022-07-31T20:21:09.424Z,23.60
2022-07-31T20:23:42.789Z,23.60
2022-07-31T20:26:17.678Z,23.60
2022-07-31T20:28:51.062Z,23.60
2022-07-31T20:31:24.807Z,23.60
2022-07-31T20:33:58.288Z,23.60
2022-07-31T20:36:31.937Z,23.60
2022-07-31T20:39:05.124Z,23.50
2022-07-31T20:41:38.476Z,23.50
2022-07-31T20:44:11.634Z,23.40
2022-07-31T20:46:45.152Z,23.40
2022-07-31T20:49:19.887Z,23.40
2022-07-31T20:52:09.025Z,23.30
2022-07-31T20:54:42.339Z,23.30
2022-07-31T20:57:16.427Z,23.20
2022-07-31T20:59:49.663Z,23.20
2022-07-31T21:02:22.853Z,23.20
2022-07-31T21:04:55.891Z,23.20
2022-07-31T21:07:30.295Z,23.10
2022-07-31T21:10:05.185Z,23.10
2022-07-31T21:12:38.368Z,23.10
2022-07-31T21:15:18.739Z,23.00
2022-07-31T21:18:05.704Z,23.00
2022-07-31T21:20:51.523Z,23.00
2022-07-31T21:23:27.475Z,22.90
2022-07-31T21:26:02.192Z,22.90
2022-07-31T21:28:36.226Z,22.80
2022-07-31T21:31:09.623Z,22.70
2022-07-31T21:33:43.013Z,22.60
2022-07-31T21:36:16.173Z,22.60
2022-07-31T21:38:49.255Z,22.50
2022-07-31T21:41:23.500Z,22.50
2022-07-31T21:43:58.944Z,22.50
2022-07-31T21:46:38.306Z,22.40
2022-07-31T21:49:13.184Z,22.40
2022-07-31T21:51:46.494Z,22.30
2022-07-31T21:54:19.456Z,22.30
2022-07-31T21:56:52.552Z,22.30
2022-07-31T21:59:25.560Z,22.20
2022-07-31T22:02:02.193Z,22.20
2022-07-31T22:04:35.696Z,22.20
2022-07-31T22:07:34.390Z,22.20
2022-07-31T22:10:11.234Z,22.20
2022-07-31T22:12:45.357Z,22.20
2022-07-31T22:15:18.808Z,22.20
2022-07-31T22:17:51.747Z,22.20
2022-07-31T22:20:25.257Z,22.20
2022-07-31T22:22:58.541Z,22.20
2022-07-31T22:25:31.722Z,22.20
2022-07-31T22:28:05.186Z,22.20
2022-07-31T22:30:38.358Z,22.20
2022-07-31T22:33:11.388Z,22.10
2022-07-31T22:35:44.499Z,22.00
2022-07-31T22:38:17.689Z,22.00
2022-07-31T22:40:57.272Z,21.90
2022-07-31T22:44:12.551Z,21.90
2022-07-31T22:46:29.143Z,21.90
2022-07-31T22:49:12.868Z,21.80
2022-07-31T22:51:50.245Z,21.80
2022-07-31T22:54:27.438Z,21.70
2022-07-31T22:57:04.778Z,21.60
2022-07-31T22:59:48.164Z,21.60
2022-07-31T23:02:23.160Z,21.60
2022-07-31T23:04:56.291Z,21.50
2022-07-31T23:07:29.266Z,21.60
2022-07-31T23:10:02.390Z,21.60
2022-07-31T23:12:35.533Z,21.60
2022-07-31T23:15:08.654Z,21.60
2022-07-31T23:17:41.743Z,21.60
2022-07-31T23:20:14.830Z,21.60
2022-07-31T23:22:48.049Z,21.60
2022-07-31T23:25:22.516Z,21.60
2022-07-31T23:27:55.693Z,21.60
2022-07-31T23:30:28.601Z,21.50
2022-07-31T23:33:01.751Z,21.50
2022-07-31T23:35:34.650Z,21.50
2022-07-31T23:38:07.672Z,21.50
2022-07-31T23:40:40.781Z,21.40
2022-07-31T23:43:16.178Z,21.50
2022-07-31T23:45:52.528Z,21.40
2022-07-31T23:48:29.933Z,21.40
2022-07-31T23:51:03.284Z,21.40
2022-07-31T23:53:36.349Z,21.40
2022-07-31T23:56:18.452Z,21.40
2022-07-31T23:58:52.268Z,21.40
